sensor_id;sensor_type;location;lat;lon;timestamp;pressure;altitude;pressure_sealevel;temperature;humidity
1652;BME280;823;49.028;8.454;2022-12-20T00:03:01;100988.78;;;6.09;60.69
1652;BME280;823;49.028;8.454;2022-12-20T00:08:02;100968.19;;;6.20;60.72
1652;BME280;823;49.028;8.454;2022-12-20T00:13:03;100951.91;;;6.22;60.54
1652;BME280;823;49.028;8.454;2022-12-20T00:18:03;100937.38;;;6.18;60.84
1652;BME280;823;49.028;8.454;2022-12-20T00:23:03;100939.09;;;6.18;60.92
1652;BME280;823;49.028;8.454;2022-12-20T00:28:04;100935.63;;;6.20;60.96
1652;BME280;823;49.028;8.454;2022-12-20T00:33:04;100927.94;;;6.23;61.12
1652;BME280;823;49.028;8.454;2022-12-20T00:38:04;100928.78;;;6.24;61.04
1652;BME280;823;49.028;8.454;2022-12-20T00:43:05;100939.88;;;6.24;61.08
1652;BME280;823;49.028;8.454;2022-12-20T00:48:05;100944.22;;;6.14;61.46
1652;BME280;823;49.028;8.454;2022-12-20T00:53:05;100953.66;;;6.14;61.46
1652;BME280;823;49.028;8.454;2022-12-20T00:58:09;100945.13;;;6.12;61.85
1652;BME280;823;49.028;8.454;2022-12-20T01:03:10;100935.69;;;6.12;61.85
1652;BME280;823;49.028;8.454;2022-12-20T01:08:10;100925.47;;;6.02;62.11
1652;BME280;823;49.028;8.454;2022-12-20T01:13:10;100928.91;;;5.94;62.54
1652;BME280;823;49.028;8.454;2022-12-20T01:18:11;100926.38;;;5.85;62.63
1652;BME280;823;49.028;8.454;2022-12-20T01:23:11;100920.34;;;5.97;62.85
1652;BME280;823;49.028;8.454;2022-12-20T01:28:12;100916.03;;;6.07;62.78
1652;BME280;823;49.028;8.454;2022-12-20T01:33:12;100906.69;;;6.00;62.58
1652;BME280;823;49.028;8.454;2022-12-20T01:38:12;100914.41;;;5.84;62.96
1652;BME280;823;49.028;8.454;2022-12-20T01:43:13;100926.38;;;5.85;62.88
1652;BME280;823;49.028;8.454;2022-12-20T01:48:17;100911.84;;;5.83;62.80
1652;BME280;823;49.028;8.454;2022-12-20T01:53:22;100913.59;;;5.80;62.81
1652;BME280;823;49.028;8.454;2022-12-20T01:58:23;100910.16;;;5.80;62.99
1652;BME280;823;49.028;8.454;2022-12-20T02:03:24;100910.16;;;5.82;62.77
1652;BME280;823;49.028;8.454;2022-12-20T02:08:24;100905.88;;;5.82;62.98
1652;BME280;823;49.028;8.454;2022-12-20T02:13:42;100906.72;;;5.86;62.77
1652;BME280;823;49.028;8.454;2022-12-20T02:24:21;100885.34;;;5.80;63.21
1652;BME280;823;49.028;8.454;2022-12-20T02:29:57;100880.22;;;5.79;63.14
1652;BME280;823;49.028;8.454;2022-12-20T02:34:59;100859.66;;;5.82;63.05
1652;BME280;823;49.028;8.454;2022-12-20T02:39:59;100850.25;;;5.86;63.30
1652;BME280;823;49.028;8.454;2022-12-20T02:45:05;100833.06;;;5.92;63.09
1652;BME280;823;49.028;8.454;2022-12-20T02:50:21;100836.50;;;5.88;63.22
1652;BME280;823;49.028;8.454;2022-12-20T02:55:42;100839.09;;;5.85;63.33
1652;BME280;823;49.028;8.454;2022-12-20T03:00:47;100842.47;;;5.93;63.52
1652;BME280;823;49.028;8.454;2022-12-20T03:05:52;100843.31;;;6.02;62.80
1652;BME280;823;49.028;8.454;2022-12-20T03:10:54;100851.00;;;6.02;63.09
1652;BME280;823;49.028;8.454;2022-12-20T03:15:54;100840.72;;;6.03;63.30
1652;BME280;823;49.028;8.454;2022-12-20T03:20:54;100850.19;;;6.01;63.62
1652;BME280;823;49.028;8.454;2022-12-20T03:25:55;100850.97;;;6.06;63.14
1652;BME280;823;49.028;8.454;2022-12-20T03:30:55;100856.97;;;6.07;63.26
1652;BME280;823;49.028;8.454;2022-12-20T03:35:55;100843.28;;;6.05;63.42
1652;BME280;823;49.028;8.454;2022-12-20T03:40:56;100840.72;;;6.08;63.36
1652;BME280;823;49.028;8.454;2022-12-20T03:45:57;100838.13;;;6.09;63.10
1652;BME280;823;49.028;8.454;2022-12-20T03:50:57;100827.84;;;6.11;63.31
1652;BME280;823;49.028;8.454;2022-12-20T03:55:58;100833.00;;;6.09;63.30
1652;BME280;823;49.028;8.454;2022-12-20T04:00:58;100841.56;;;6.07;63.47
1652;BME280;823;49.028;8.454;2022-12-20T04:05:59;100825.28;;;6.06;63.38
1652;BME280;823;49.028;8.454;2022-12-20T04:10:59;100816.72;;;6.12;63.55
1652;BME280;823;49.028;8.454;2022-12-20T04:16:23;100814.94;;;6.17;63.59
1652;BME280;823;49.028;8.454;2022-12-20T04:21:29;100810.63;;;6.22;63.26
1652;BME280;823;49.028;8.454;2022-12-20T04:26:29;100794.38;;;6.23;63.85
1652;BME280;823;49.028;8.454;2022-12-20T04:31:30;100780.63;;;6.24;63.45
1652;BME280;823;49.028;8.454;2022-12-20T04:36:30;100790.00;;;6.28;63.82
1652;BME280;823;49.028;8.454;2022-12-20T04:41:31;100795.16;;;6.32;63.34
1652;BME280;823;49.028;8.454;2022-12-20T04:46:31;100777.16;;;6.32;63.53
1652;BME280;823;49.028;8.454;2022-12-20T04:51:32;100779.69;;;6.35;63.29
1652;BME280;823;49.028;8.454;2022-12-20T04:56:32;100775.38;;;6.37;63.28
1652;BME280;823;49.028;8.454;2022-12-20T05:01:33;100779.69;;;6.36;63.49
1652;BME280;823;49.028;8.454;2022-12-20T05:06:33;100789.97;;;6.35;63.58
1652;BME280;823;49.028;8.454;2022-12-20T05:11:33;100790.84;;;6.32;63.54
1652;BME280;823;49.028;8.454;2022-12-20T05:16:34;100787.38;;;6.38;63.18
1652;BME280;823;49.028;8.454;2022-12-20T05:21:34;100771.13;;;6.37;63.22
1652;BME280;823;49.028;8.454;2022-12-20T05:26:53;100764.28;;;6.35;63.44
1652;BME280;823;49.028;8.454;2022-12-20T05:31:53;100781.41;;;6.37;63.69
1652;BME280;823;49.028;8.454;2022-12-20T05:36:53;100782.19;;;6.44;63.86
1652;BME280;823;49.028;8.454;2022-12-20T05:41:54;100778.72;;;6.48;63.74
1652;BME280;823;49.028;8.454;2022-12-20T05:46:54;100776.13;;;6.50;63.60
1652;BME280;823;49.028;8.454;2022-12-20T05:51:54;100776.13;;;6.51;63.62
1652;BME280;823;49.028;8.454;2022-12-20T05:56:55;100774.34;;;6.55;63.23
1652;BME280;823;49.028;8.454;2022-12-20T06:01:55;100776.94;;;6.56;63.32
1652;BME280;823;49.028;8.454;2022-12-20T06:06:55;100779.47;;;6.58;63.44
1652;BME280;823;49.028;8.454;2022-12-20T06:11:56;100782.03;;;6.59;63.20
1652;BME280;823;49.028;8.454;2022-12-20T06:16:56;100778.56;;;6.60;63.46
1652;BME280;823;49.028;8.454;2022-12-20T06:21:56;100773.44;;;6.63;63.46
1652;BME280;823;49.028;8.454;2022-12-20T06:26:57;100758.78;;;6.69;63.50
1652;BME280;823;49.028;8.454;2022-12-20T06:31:57;100757.03;;;6.72;63.35
1652;BME280;823;49.028;8.454;2022-12-20T06:36:58;100760.53;;;6.67;63.56
1652;BME280;823;49.028;8.454;2022-12-20T06:41:58;100748.50;;;6.70;63.67
1652;BME280;823;49.028;8.454;2022-12-20T06:46:58;100746.81;;;6.68;63.73
1652;BME280;823;49.028;8.454;2022-12-20T06:51:59;100743.50;;;6.58;64.10
1652;BME280;823;49.028;8.454;2022-12-20T06:57:00;100749.34;;;6.71;63.76
1652;BME280;823;49.028;8.454;2022-12-20T07:02:01;100734.81;;;6.68;63.98
1652;BME280;823;49.028;8.454;2022-12-20T07:07:01;100735.66;;;6.69;64.07
1652;BME280;823;49.028;8.454;2022-12-20T07:12:01;100726.13;;;6.77;64.25
1652;BME280;823;49.028;8.454;2022-12-20T07:17:03;100727.78;;;6.84;64.72
1652;BME280;823;49.028;8.454;2022-12-20T07:22:04;100724.16;;;6.99;64.67
1652;BME280;823;49.028;8.454;2022-12-20T07:27:04;100723.16;;;7.11;64.58
1652;BME280;823;49.028;8.454;2022-12-20T07:32:05;100740.25;;;7.15;64.71
1652;BME280;823;49.028;8.454;2022-12-20T07:37:05;100749.53;;;7.25;64.42
1652;BME280;823;49.028;8.454;2022-12-20T07:42:07;100736.59;;;7.31;64.42
1652;BME280;823;49.028;8.454;2022-12-20T07:47:08;100743.41;;;7.36;64.66
1652;BME280;823;49.028;8.454;2022-12-20T07:52:11;100732.16;;;7.41;64.12
1652;BME280;823;49.028;8.454;2022-12-20T07:57:21;100710.75;;;7.38;64.43
1652;BME280;823;49.028;8.454;2022-12-20T08:02:36;100703.84;;;7.43;64.61
1652;BME280;823;49.028;8.454;2022-12-20T08:07:39;100694.31;;;7.49;64.51
1652;BME280;823;49.028;8.454;2022-12-20T08:12:41;100697.47;;;7.65;64.34
1652;BME280;823;49.028;8.454;2022-12-20T08:17:42;100700.00;;;7.69;64.58
1652;BME280;823;49.028;8.454;2022-12-20T08:22:42;100700.66;;;7.81;64.12
1652;BME280;823;49.028;8.454;2022-12-20T08:27:44;100690.09;;;7.97;64.04
1652;BME280;823;49.028;8.454;2022-12-20T08:32:44;100689.97;;;8.05;64.06
1652;BME280;823;49.028;8.454;2022-12-20T08:37:45;100693.28;;;8.10;63.89
1652;BME280;823;49.028;8.454;2022-12-20T08:42:45;100682.06;;;8.14;64.12
1652;BME280;823;49.028;8.454;2022-12-20T08:47:46;100664.84;;;8.16;63.74
1652;BME280;823;49.028;8.454;2022-12-20T08:52:46;100657.97;;;8.16;63.96
1652;BME280;823;49.028;8.454;2022-12-20T08:57:47;100672.69;;;8.10;64.18
1652;BME280;823;49.028;8.454;2022-12-20T09:02:47;100663.94;;;8.18;64.24
1652;BME280;823;49.028;8.454;2022-12-20T09:07:48;100659.47;;;8.28;64.10
1652;BME280;823;49.028;8.454;2022-12-20T09:12:48;100656.03;;;8.29;64.03
1652;BME280;823;49.028;8.454;2022-12-20T09:17:49;100662.69;;;8.40;64.20
1652;BME280;823;49.028;8.454;2022-12-20T09:22:49;100669.38;;;8.51;64.46
1652;BME280;823;49.028;8.454;2022-12-20T09:27:49;100681.97;;;8.64;64.26
1652;BME280;823;49.028;8.454;2022-12-20T09:32:50;100679.25;;;8.72;64.38
1652;BME280;823;49.028;8.454;2022-12-20T09:37:50;100666.25;;;8.78;64.02
1652;BME280;823;49.028;8.454;2022-12-20T09:42:50;100678.97;;;8.85;63.96
1652;BME280;823;49.028;8.454;2022-12-20T09:47:52;100679.69;;;8.92;64.11
1652;BME280;823;49.028;8.454;2022-12-20T09:53:05;100676.03;;;9.02;63.74
1652;BME280;823;49.028;8.454;2022-12-20T09:58:56;100673.31;;;9.09;63.83
1652;BME280;823;49.028;8.454;2022-12-20T10:03:58;100681.94;;;9.08;63.78
1652;BME280;823;49.028;8.454;2022-12-20T10:09:04;100665.50;;;9.12;63.63
1652;BME280;823;49.028;8.454;2022-12-20T10:19:38;100649.22;;;9.10;62.99
1652;BME280;823;49.028;8.454;2022-12-20T10:24:58;100649.94;;;9.15;63.22
1652;BME280;823;49.028;8.454;2022-12-20T10:30:00;100648.06;;;9.22;63.37
1652;BME280;823;49.028;8.454;2022-12-20T10:40:25;100639.00;;;9.41;63.28
1652;BME280;823;49.028;8.454;2022-12-20T10:45:36;100631.00;;;9.52;63.33
1652;BME280;823;49.028;8.454;2022-12-20T10:50:37;100613.44;;;9.66;63.10
1652;BME280;823;49.028;8.454;2022-12-20T10:55:39;100601.28;;;9.70;62.96
1652;BME280;823;49.028;8.454;2022-12-20T11:00:40;100595.94;;;9.78;62.93
1652;BME280;823;49.028;8.454;2022-12-20T11:05:57;100600.03;;;9.85;62.92
1652;BME280;823;49.028;8.454;2022-12-20T11:11:18;100586.28;;;9.84;62.46
1652;BME280;823;49.028;8.454;2022-12-20T11:16:35;100569.81;;;9.87;62.39
1652;BME280;823;49.028;8.454;2022-12-20T11:21:46;100545.94;;;9.80;62.45
1652;BME280;823;49.028;8.454;2022-12-20T11:47:58;100541.19;;;10.26;62.37
1652;BME280;823;49.028;8.454;2022-12-20T11:53:07;100533.25;;;10.32;62.07
1652;BME280;823;49.028;8.454;2022-12-20T11:58:26;100528.00;;;10.35;61.91
1652;BME280;823;49.028;8.454;2022-12-20T12:03:36;100522.63;;;10.43;61.79
1652;BME280;823;49.028;8.454;2022-12-20T12:13:39;100504.28;;;10.51;61.62
1652;BME280;823;49.028;8.454;2022-12-20T12:18:39;100518.00;;;10.53;61.38
1652;BME280;823;49.028;8.454;2022-12-20T12:29:15;100505.03;;;10.54;61.02
1652;BME280;823;49.028;8.454;2022-12-20T12:34:47;100486.75;;;10.61;60.96
1652;BME280;823;49.028;8.454;2022-12-20T12:40:02;100455.94;;;10.53;60.81
1652;BME280;823;49.028;8.454;2022-12-20T12:45:14;100448.88;;;10.58;60.62
1652;BME280;823;49.028;8.454;2022-12-20T12:50:27;100437.34;;;10.68;60.36
1652;BME280;823;49.028;8.454;2022-12-20T12:55:41;100451.09;;;10.70;60.54
1652;BME280;823;49.028;8.454;2022-12-20T13:00:49;100430.88;;;10.82;60.28
1652;BME280;823;49.028;8.454;2022-12-20T13:05:50;100429.94;;;10.84;60.13
1652;BME280;823;49.028;8.454;2022-12-20T13:15:51;100424.69;;;10.86;59.87
1652;BME280;823;49.028;8.454;2022-12-20T13:21:36;100422.53;;;10.99;59.54
1652;BME280;823;49.028;8.454;2022-12-20T13:26:50;100396.72;;;10.97;59.40
1652;BME280;823;49.028;8.454;2022-12-20T13:31:52;100412.22;;;10.97;59.32
1652;BME280;823;49.028;8.454;2022-12-20T13:36:57;100415.50;;;11.02;58.97
1652;BME280;823;49.028;8.454;2022-12-20T13:42:19;100397.72;;;10.93;58.92
1652;BME280;823;49.028;8.454;2022-12-20T13:52:30;100395.94;;;10.94;58.93
1652;BME280;823;49.028;8.454;2022-12-20T13:57:41;100401.19;;;10.92;58.79
1652;BME280;823;49.028;8.454;2022-12-20T14:02:42;100392.84;;;10.84;58.74
1652;BME280;823;49.028;8.454;2022-12-20T14:07:46;100386.19;;;10.77;59.24
1652;BME280;823;49.028;8.454;2022-12-20T14:12:49;100387.94;;;10.76;59.38
1652;BME280;823;49.028;8.454;2022-12-20T14:17:50;100400.13;;;10.72;59.35
1652;BME280;823;49.028;8.454;2022-12-20T14:23:05;100399.19;;;10.75;59.21
1652;BME280;823;49.028;8.454;2022-12-20T14:28:36;100386.28;;;10.73;59.07
1652;BME280;823;49.028;8.454;2022-12-20T14:33:39;100382.28;;;10.65;59.63
1652;BME280;823;49.028;8.454;2022-12-20T14:38:44;100379.59;;;10.68;59.40
1652;BME280;823;49.028;8.454;2022-12-20T14:43:53;100383.06;;;10.67;59.25
1652;BME280;823;49.028;8.454;2022-12-20T14:54:29;100351.38;;;10.60;59.30
1652;BME280;823;49.028;8.454;2022-12-20T14:59:29;100361.00;;;10.56;59.22
1652;BME280;823;49.028;8.454;2022-12-20T15:04:34;100358.56;;;10.52;59.30
1652;BME280;823;49.028;8.454;2022-12-20T15:09:34;100370.84;;;10.45;59.44
1652;BME280;823;49.028;8.454;2022-12-20T15:14:36;100363.19;;;10.42;59.24
1652;BME280;823;49.028;8.454;2022-12-20T15:19:38;100380.63;;;10.35;59.33
1652;BME280;823;49.028;8.454;2022-12-20T15:24:38;100384.97;;;10.35;59.43
1652;BME280;823;49.028;8.454;2022-12-20T15:29:39;100383.41;;;10.29;59.42
1652;BME280;823;49.028;8.454;2022-12-20T15:34:39;100373.25;;;10.23;59.73
1652;BME280;823;49.028;8.454;2022-12-20T15:39:39;100382.19;;;10.13;60.19
1652;BME280;823;49.028;8.454;2022-12-20T15:44:40;100367.53;;;10.13;60.00
1652;BME280;823;49.028;8.454;2022-12-20T15:49:41;100359.75;;;10.13;59.92
1652;BME280;823;49.028;8.454;2022-12-20T15:54:41;100363.16;;;10.15;59.81
1652;BME280;823;49.028;8.454;2022-12-20T15:59:41;100363.31;;;10.11;59.93
1652;BME280;823;49.028;8.454;2022-12-20T16:04:41;100361.56;;;10.11;60.25
1652;BME280;823;49.028;8.454;2022-12-20T16:09:42;100361.66;;;10.08;60.23
1652;BME280;823;49.028;8.454;2022-12-20T16:14:42;100356.63;;;10.03;60.32
1652;BME280;823;49.028;8.454;2022-12-20T16:19:43;100349.63;;;10.07;60.46
1652;BME280;823;49.028;8.454;2022-12-20T16:24:44;100353.00;;;10.09;60.28
1652;BME280;823;49.028;8.454;2022-12-20T16:29:44;100366.03;;;10.06;60.12
1652;BME280;823;49.028;8.454;2022-12-20T16:34:45;100361.78;;;10.03;60.10
1652;BME280;823;49.028;8.454;2022-12-20T16:39:45;100348.97;;;10.00;59.71
1652;BME280;823;49.028;8.454;2022-12-20T16:44:49;100351.63;;;9.99;60.01
1652;BME280;823;49.028;8.454;2022-12-20T16:49:50;100345.69;;;9.95;60.13
1652;BME280;823;49.028;8.454;2022-12-20T16:54:50;100341.50;;;9.91;60.56
1652;BME280;823;49.028;8.454;2022-12-20T16:59:51;100340.63;;;9.92;60.39
1652;BME280;823;49.028;8.454;2022-12-20T17:04:51;100331.94;;;9.95;60.22
1652;BME280;823;49.028;8.454;2022-12-20T17:09:53;100320.06;;;9.89;60.33
1652;BME280;823;49.028;8.454;2022-12-20T17:14:53;100313.19;;;9.88;60.38
1652;BME280;823;49.028;8.454;2022-12-20T17:19:54;100324.28;;;9.92;60.33
1652;BME280;823;49.028;8.454;2022-12-20T17:24:54;100322.13;;;9.78;60.75
1652;BME280;823;49.028;8.454;2022-12-20T17:29:54;100312.69;;;9.77;60.70
1652;BME280;823;49.028;8.454;2022-12-20T17:34:54;100309.28;;;9.76;61.10
1652;BME280;823;49.028;8.454;2022-12-20T17:39:55;100316.88;;;9.81;60.64
1652;BME280;823;49.028;8.454;2022-12-20T17:44:55;100303.84;;;9.84;60.64
1652;BME280;823;49.028;8.454;2022-12-20T17:49:56;100304.72;;;9.83;60.43
1652;BME280;823;49.028;8.454;2022-12-20T17:54:56;100307.31;;;9.83;60.34
1652;BME280;823;49.028;8.454;2022-12-20T17:59:56;100309.91;;;9.83;60.20
1652;BME280;823;49.028;8.454;2022-12-20T18:04:57;100316.41;;;9.68;60.36
1652;BME280;823;49.028;8.454;2022-12-20T18:09:57;100320.91;;;9.61;60.78
1652;BME280;823;49.028;8.454;2022-12-20T18:14:58;100316.53;;;9.63;60.83
1652;BME280;823;49.028;8.454;2022-12-20T18:19:58;100302.72;;;9.64;60.72
1652;BME280;823;49.028;8.454;2022-12-20T18:24:59;100294.19;;;9.62;60.82
1652;BME280;823;49.028;8.454;2022-12-20T18:29:59;100301.94;;;9.62;60.81
1652;BME280;823;49.028;8.454;2022-12-20T18:34:59;100292.63;;;9.57;61.10
1652;BME280;823;49.028;8.454;2022-12-20T18:40:00;100281.47;;;9.56;61.18
1652;BME280;823;49.028;8.454;2022-12-20T18:45:00;100272.81;;;9.57;61.13
1652;BME280;823;49.028;8.454;2022-12-20T18:50:00;100289.19;;;9.56;61.13
1652;BME280;823;49.028;8.454;2022-12-20T18:55:01;100274.59;;;9.55;61.26
1652;BME280;823;49.028;8.454;2022-12-20T19:00:02;100288.41;;;9.54;61.37
1652;BME280;823;49.028;8.454;2022-12-20T19:05:03;100293.44;;;9.59;61.19
1652;BME280;823;49.028;8.454;2022-12-20T19:10:03;100302.94;;;9.58;61.03
1652;BME280;823;49.028;8.454;2022-12-20T19:15:04;100306.25;;;9.62;61.12
1652;BME280;823;49.028;8.454;2022-12-20T19:20:06;100300.00;;;9.69;61.03
1652;BME280;823;49.028;8.454;2022-12-20T19:25:06;100300.75;;;9.73;61.14
1652;BME280;823;49.028;8.454;2022-12-20T19:30:07;100303.34;;;9.73;61.10
1652;BME280;823;49.028;8.454;2022-12-20T19:35:08;100308.66;;;9.68;61.31
1652;BME280;823;49.028;8.454;2022-12-20T19:40:08;100312.72;;;9.75;61.15
1652;BME280;823;49.028;8.454;2022-12-20T19:45:09;100305.81;;;9.76;61.01
1652;BME280;823;49.028;8.454;2022-12-20T19:50:11;100313.56;;;9.76;61.03
1652;BME280;823;49.028;8.454;2022-12-20T19:55:11;100310.06;;;9.78;61.19
1652;BME280;823;49.028;8.454;2022-12-20T20:00:12;100314.38;;;9.78;61.21
1652;BME280;823;49.028;8.454;2022-12-20T20:05:12;100333.41;;;9.75;61.25
1652;BME280;823;49.028;8.454;2022-12-20T20:10:13;100331.59;;;9.77;61.50
1652;BME280;823;49.028;8.454;2022-12-20T20:15:13;100335.13;;;9.75;61.19
1652;BME280;823;49.028;8.454;2022-12-20T20:20:13;100337.00;;;9.69;61.36
1652;BME280;823;49.028;8.454;2022-12-20T20:25:14;100343.94;;;9.67;60.89
1652;BME280;823;49.028;8.454;2022-12-20T20:30:14;100340.69;;;9.61;61.38
1652;BME280;823;49.028;8.454;2022-12-20T20:35:15;100326.38;;;9.50;61.81
1652;BME280;823;49.028;8.454;2022-12-20T20:40:16;100330.78;;;9.47;62.13
1652;BME280;823;49.028;8.454;2022-12-20T20:45:16;100336.91;;;9.44;62.24
1652;BME280;823;49.028;8.454;2022-12-20T20:50:17;100331.69;;;9.46;62.30
1652;BME280;823;49.028;8.454;2022-12-20T20:55:17;100324.81;;;9.45;62.39
1652;BME280;823;49.028;8.454;2022-12-20T21:00:18;100327.56;;;9.38;62.85
1652;BME280;823;49.028;8.454;2022-12-20T21:05:18;100333.69;;;9.36;62.84
1652;BME280;823;49.028;8.454;2022-12-20T21:10:19;100340.56;;;9.35;63.04
1652;BME280;823;49.028;8.454;2022-12-20T21:15:19;100333.94;;;9.27;63.52
1652;BME280;823;49.028;8.454;2022-12-20T21:20:19;100320.19;;;9.26;63.40
1652;BME280;823;49.028;8.454;2022-12-20T21:25:20;100310.63;;;9.30;63.49
1652;BME280;823;49.028;8.454;2022-12-20T21:30:20;100299.41;;;9.31;63.63
1652;BME280;823;49.028;8.454;2022-12-20T21:35:21;100295.03;;;9.33;64.00
1652;BME280;823;49.028;8.454;2022-12-20T21:40:21;100288.84;;;9.40;64.12
1652;BME280;823;49.028;8.454;2022-12-20T21:45:22;100283.00;;;9.33;64.73
1652;BME280;823;49.028;8.454;2022-12-20T21:50:22;100271.28;;;9.51;64.48
1652;BME280;823;49.028;8.454;2022-12-20T21:55:22;100276.41;;;9.53;64.61
1652;BME280;823;49.028;8.454;2022-12-20T22:00:22;100274.53;;;9.58;64.54
1652;BME280;823;49.028;8.454;2022-12-20T22:05:23;100277.84;;;9.62;64.76
1652;BME280;823;49.028;8.454;2022-12-20T22:10:23;100286.56;;;9.58;64.58
1652;BME280;823;49.028;8.454;2022-12-20T22:15:23;100284.84;;;9.58;64.65
1652;BME280;823;49.028;8.454;2022-12-20T22:20:24;100290.75;;;9.62;64.52
1652;BME280;823;49.028;8.454;2022-12-20T22:25:24;100293.44;;;9.59;64.58
1652;BME280;823;49.028;8.454;2022-12-20T22:30:25;100302.00;;;9.59;64.47
1652;BME280;823;49.028;8.454;2022-12-20T22:35:25;100292.63;;;9.57;64.81
1652;BME280;823;49.028;8.454;2022-12-20T22:40:25;100282.22;;;9.60;64.85
1652;BME280;823;49.028;8.454;2022-12-20T22:45:26;100289.03;;;9.62;65.02
1652;BME280;823;49.028;8.454;2022-12-20T22:50:26;100278.59;;;9.65;64.63
1652;BME280;823;49.028;8.454;2022-12-20T22:55:26;100286.53;;;9.59;65.10
1652;BME280;823;49.028;8.454;2022-12-20T23:00:26;100276.03;;;9.65;65.08
1652;BME280;823;49.028;8.454;2022-12-20T23:05:27;100272.41;;;9.71;65.01
1652;BME280;823;49.028;8.454;2022-12-20T23:10:27;100260.22;;;9.75;65.30
1652;BME280;823;49.028;8.454;2022-12-20T23:15:47;100273.94;;;9.77;65.23
1652;BME280;823;49.028;8.454;2022-12-20T23:20:49;100266.19;;;9.77;65.08
1652;BME280;823;49.028;8.454;2022-12-20T23:26:12;100277.41;;;9.76;65.10
1652;BME280;823;49.028;8.454;2022-12-20T23:31:13;100274.97;;;9.71;65.21
1652;BME280;823;49.028;8.454;2022-12-20T23:36:13;100279.22;;;9.74;65.04
1652;BME280;823;49.028;8.454;2022-12-20T23:41:14;100280.16;;;9.71;65.31
1652;BME280;823;49.028;8.454;2022-12-20T23:46:16;100276.53;;;9.77;65.19
1652;BME280;823;49.028;8.454;2022-12-20T23:51:18;100273.19;;;9.73;65.35
1652;BME280;823;49.028;8.454;2022-12-20T23:56:20;100258.41;;;9.78;65.23
